createdAt,value
2024-04-26T00:00:03.404Z,0
2024-04-26T00:01:42.942Z,0
2024-04-26T00:03:22.721Z,0
2024-04-26T00:05:02.510Z,0
2024-04-26T00:06:42.236Z,0
2024-04-26T00:08:22.331Z,0
2024-04-26T00:10:02.040Z,0
2024-04-26T00:11:41.867Z,0
2024-04-26T00:13:21.665Z,0
2024-04-26T00:15:01.074Z,0
2024-04-26T00:16:40.930Z,0
2024-04-26T00:18:20.889Z,0
2024-04-26T00:20:00.771Z,0
2024-04-26T00:21:40.137Z,0
2024-04-26T00:23:20.279Z,0
2024-04-26T00:25:00.002Z,0
2024-04-26T00:26:39.582Z,0
2024-04-26T00:28:19.207Z,0
2024-04-26T00:29:59.168Z,0
2024-04-26T00:31:38.794Z,0
2024-04-26T00:33:18.907Z,0
2024-04-26T00:34:58.817Z,0
2024-04-26T00:36:38.365Z,0
2024-04-26T00:38:18.203Z,0
2024-04-26T00:39:57.973Z,0
2024-04-26T00:41:37.495Z,0
2024-04-26T00:43:17.486Z,0
2024-04-26T00:44:57.259Z,0
2024-04-26T00:46:36.852Z,0
2024-04-26T00:48:16.750Z,0
2024-04-26T00:49:56.514Z,0
2024-04-26T00:51:36.200Z,0
2024-04-26T00:53:15.984Z,0
2024-04-26T00:54:55.557Z,0
2024-04-26T00:56:35.597Z,0
2024-04-26T00:58:15.436Z,0
2024-04-26T00:59:55.113Z,0
2024-04-26T01:01:34.794Z,0
2024-04-26T01:03:14.724Z,0
2024-04-26T01:04:54.236Z,0
2024-04-26T01:06:34.011Z,0
2024-04-26T01:08:13.724Z,0
2024-04-26T01:09:53.608Z,0
2024-04-26T01:11:33.350Z,0
2024-04-26T01:13:12.926Z,0
2024-04-26T01:14:53.008Z,0
2024-04-26T01:16:32.651Z,0
2024-04-26T01:18:12.528Z,0
2024-04-26T01:19:51.991Z,0
2024-04-26T01:21:32.157Z,0
2024-04-26T01:23:11.528Z,0
2024-04-26T01:24:51.325Z,0
2024-04-26T01:26:31.194Z,0
2024-04-26T01:28:10.982Z,0
2024-04-26T01:29:50.724Z,0
2024-04-26T01:31:30.457Z,0
2024-04-26T01:33:10.568Z,0
2024-04-26T01:34:50.194Z,0
2024-04-26T01:36:29.709Z,0
2024-04-26T01:38:09.452Z,0
2024-04-26T01:39:49.209Z,0
2024-04-26T01:41:28.970Z,0
2024-04-26T01:43:08.825Z,0
2024-04-26T01:44:48.516Z,0
2024-04-26T01:46:28.275Z,0
2024-04-26T01:48:08.072Z,0
2024-04-26T01:49:47.925Z,0
2024-04-26T01:51:27.580Z,0
2024-04-26T01:53:07.349Z,0
2024-04-26T01:54:47.148Z,0
2024-04-26T01:56:26.995Z,0
2024-04-26T01:58:06.767Z,0
2024-04-26T01:59:46.432Z,0
2024-04-26T02:01:26.185Z,0
2024-04-26T02:03:05.956Z,0
2024-04-26T02:04:45.721Z,0
2024-04-26T02:06:25.961Z,0
2024-04-26T02:08:05.278Z,0
2024-04-26T02:09:45.065Z,0
2024-04-26T02:11:24.803Z,0
2024-04-26T02:13:04.547Z,0
2024-04-26T02:14:44.324Z,0
2024-04-26T02:16:24.114Z,0
2024-04-26T02:18:03.869Z,0
2024-04-26T02:19:43.657Z,0
2024-04-26T02:21:23.410Z,0
2024-04-26T02:23:03.264Z,0
2024-04-26T02:24:42.943Z,0
2024-04-26T02:26:23.077Z,0
2024-04-26T02:28:02.468Z,0
2024-04-26T02:29:42.240Z,0
2024-04-26T02:31:22.309Z,0
2024-04-26T02:33:01.820Z,0
2024-04-26T02:34:41.572Z,0
2024-04-26T02:36:21.608Z,0
2024-04-26T02:38:01.071Z,0
2024-04-26T02:39:40.898Z,0
2024-04-26T02:41:20.601Z,0
2024-04-26T02:43:00.532Z,0
2024-04-26T02:44:40.129Z,0
2024-04-26T02:46:19.904Z,0
2024-04-26T02:47:59.691Z,0
2024-04-26T02:49:39.537Z,0
2024-04-26T02:51:19.186Z,0
2024-04-26T02:52:58.984Z,0
2024-04-26T02:54:38.758Z,0
2024-04-26T02:56:18.662Z,0
2024-04-26T02:57:58.277Z,0
2024-04-26T02:59:38.041Z,0
2024-04-26T03:01:17.816Z,0
2024-04-26T03:02:57.590Z,0
2024-04-26T03:04:37.367Z,0
2024-04-26T03:06:17.333Z,0
2024-04-26T03:07:57.084Z,0
2024-04-26T03:09:36.665Z,0
2024-04-26T03:11:16.461Z,0
2024-04-26T03:12:56.178Z,0
2024-04-26T03:14:35.951Z,0
2024-04-26T03:16:15.732Z,0
2024-04-26T03:17:55.640Z,0
2024-04-26T03:19:35.457Z,0
2024-04-26T03:21:15.120Z,0
2024-04-26T03:22:54.802Z,0
2024-04-26T03:24:34.545Z,0
2024-04-26T03:26:14.619Z,0
2024-04-26T03:27:54.129Z,0
2024-04-26T03:29:33.959Z,0
2024-04-26T03:31:13.940Z,0
2024-04-26T03:32:53.485Z,0
2024-04-26T03:34:33.350Z,0
2024-04-26T03:36:12.983Z,0.01
2024-04-26T03:37:53.268Z,0
2024-04-26T03:39:32.662Z,0
2024-04-26T03:41:12.267Z,0
2024-04-26T03:42:51.994Z,0.02
2024-04-26T03:44:31.974Z,0.02
2024-04-26T03:46:11.608Z,0.07
2024-04-26T03:47:51.398Z,0.02
2024-04-26T03:49:31.102Z,0
2024-04-26T03:51:10.866Z,0.1
2024-04-26T03:52:50.680Z,0
2024-04-26T03:54:30.566Z,0.1
2024-04-26T03:56:10.144Z,0
2024-04-26T03:57:49.930Z,0.06
2024-04-26T03:59:29.678Z,0.13
2024-04-26T04:01:09.461Z,0
2024-04-26T04:02:49.262Z,0.16
2024-04-26T04:04:29.024Z,0.01
2024-04-26T04:06:08.781Z,0.01
2024-04-26T04:07:48.575Z,0.08
2024-04-26T04:09:28.283Z,0.19
2024-04-26T04:11:08.154Z,0.19
2024-04-26T04:12:47.914Z,0.27
2024-04-26T04:14:27.580Z,0.25
2024-04-26T04:16:07.369Z,0.17
2024-04-26T04:17:47.263Z,0.27
2024-04-26T04:19:26.916Z,0.27
2024-04-26T04:21:06.679Z,0.26
2024-04-26T04:22:46.439Z,0.44
2024-04-26T04:24:26.223Z,0.35
2024-04-26T04:26:05.970Z,0.33
2024-04-26T04:27:45.745Z,0.35
2024-04-26T04:29:25.534Z,0.42
2024-04-26T04:31:05.289Z,0.45
2024-04-26T04:32:45.041Z,0.38
2024-04-26T04:34:24.832Z,0.51
2024-04-26T04:36:04.647Z,0.48
2024-04-26T04:37:44.401Z,0.51
2024-04-26T04:39:24.200Z,0.38
2024-04-26T04:41:03.915Z,0.54
2024-04-26T04:42:43.684Z,0.43
2024-04-26T04:44:23.565Z,0.37
2024-04-26T04:46:03.224Z,0.55
2024-04-26T04:47:43.199Z,0.61
2024-04-26T04:49:22.778Z,0.62
2024-04-26T04:51:02.795Z,0.52
2024-04-26T04:52:42.370Z,0.6
2024-04-26T04:54:22.059Z,0.6
2024-04-26T04:56:01.857Z,0.56
2024-04-26T04:57:41.830Z,0.63
2024-04-26T04:59:21.479Z,0.64
2024-04-26T05:01:01.208Z,0.74
2024-04-26T05:02:40.994Z,0.79
2024-04-26T05:04:20.812Z,0.64
2024-04-26T05:06:00.515Z,0.65
2024-04-26T05:07:40.350Z,0.68
2024-04-26T05:09:20.003Z,0.66
2024-04-26T05:10:59.785Z,0.86
2024-04-26T05:12:39.536Z,0.79
2024-04-26T05:14:19.525Z,0.87
2024-04-26T05:15:59.150Z,0.76
2024-04-26T05:17:38.909Z,0.89
2024-04-26T05:19:18.627Z,0.96
2024-04-26T05:20:58.611Z,1.04
2024-04-26T05:22:38.224Z,1.01
2024-04-26T05:24:17.951Z,0.43
2024-04-26T05:25:57.720Z,0.43
2024-04-26T05:27:37.795Z,0.44
2024-04-26T05:29:17.373Z,0.38
2024-04-26T05:30:57.013Z,0.4
2024-04-26T05:34:16.590Z,0.37
2024-04-26T05:35:56.327Z,0.34
2024-04-26T05:37:36.099Z,0.36
2024-04-26T05:39:15.878Z,0.33
2024-04-26T05:40:55.717Z,0.33
2024-04-26T05:42:35.456Z,0.35
2024-04-26T05:44:15.219Z,0.36
2024-04-26T05:45:54.982Z,0.34
2024-04-26T05:47:34.723Z,0.35
2024-04-26T05:49:14.525Z,0.32
2024-04-26T05:50:54.315Z,0.32
2024-04-26T05:52:34.171Z,0.32
2024-04-26T05:54:13.800Z,0.33
2024-04-26T05:55:53.588Z,0.32
2024-04-26T05:57:33.448Z,0.32
2024-04-26T05:59:13.122Z,0.32
2024-04-26T06:00:52.896Z,0.32
2024-04-26T06:02:32.687Z,0.34
2024-04-26T06:04:12.553Z,0.32
2024-04-26T06:05:52.219Z,0.32
2024-04-26T06:07:31.976Z,0.32
2024-04-26T06:09:11.802Z,0.32
2024-04-26T06:10:51.556Z,0.32
2024-04-26T06:12:31.381Z,0.3
2024-04-26T06:14:11.159Z,0.32
2024-04-26T06:15:50.942Z,0.31
2024-04-26T06:17:30.711Z,0.32
2024-04-26T06:19:10.393Z,0.31
2024-04-26T06:20:50.163Z,0.29
2024-04-26T06:22:30.024Z,0.32
2024-04-26T06:24:09.679Z,0.31
2024-04-26T06:25:49.506Z,0.3
2024-04-26T06:27:29.220Z,0.31
2024-04-26T06:29:08.980Z,0.3
2024-04-26T06:30:48.824Z,0.31
2024-04-26T06:32:28.841Z,0.3
2024-04-26T06:34:08.284Z,0.3
2024-04-26T06:35:48.071Z,0.31
2024-04-26T06:37:28.317Z,0.3
2024-04-26T06:39:07.681Z,0.3
2024-04-26T06:40:47.392Z,0.31
2024-04-26T06:42:27.136Z,0.31
2024-04-26T06:44:07.073Z,0.31
2024-04-26T06:45:46.695Z,0.31
2024-04-26T06:47:26.591Z,0.29
2024-04-26T06:49:06.319Z,0.3
2024-04-26T06:50:46.299Z,0.29
2024-04-26T06:52:25.826Z,0.3
2024-04-26T06:54:05.547Z,0.31
2024-04-26T06:55:45.325Z,0.28
2024-04-26T06:57:25.239Z,0.3
2024-04-26T06:59:04.898Z,0.29
2024-04-26T07:00:44.920Z,0.29
2024-04-26T07:02:24.816Z,0.29
2024-04-26T07:04:04.363Z,0.3
2024-04-26T07:05:44.159Z,0.3
2024-04-26T07:07:23.833Z,0.3
2024-04-26T07:09:03.734Z,0.29
2024-04-26T07:10:43.270Z,0.31
2024-04-26T07:12:22.998Z,0.29
2024-04-26T07:14:02.786Z,0.3
2024-04-26T07:15:42.757Z,0.29
2024-04-26T07:17:22.782Z,0.3
2024-04-26T07:19:02.394Z,0.3
2024-04-26T07:20:42.176Z,0.31
2024-04-26T07:22:21.867Z,0.3
2024-04-26T07:24:01.543Z,0.3
2024-04-26T07:25:41.180Z,0.3
2024-04-26T07:27:21.021Z,0.3
2024-04-26T07:29:00.778Z,0.3
2024-04-26T07:30:40.802Z,0.3
2024-04-26T07:32:20.484Z,0.3
2024-04-26T07:34:00.173Z,0.3
2024-04-26T07:35:39.801Z,0.3
2024-04-26T07:37:19.719Z,0.3
2024-04-26T07:38:59.457Z,0.29
2024-04-26T07:40:39.160Z,0.3
2024-04-26T07:42:18.987Z,0.31
2024-04-26T07:43:58.728Z,0.3
2024-04-26T07:45:38.508Z,0.29
2024-04-26T07:47:18.357Z,0.3
2024-04-26T07:48:58.048Z,0.3
2024-04-26T07:50:37.765Z,0.31
2024-04-26T07:52:17.503Z,0.3
2024-04-26T07:53:57.290Z,0.31
2024-04-26T07:55:37.067Z,0.3
2024-04-26T07:57:17.013Z,0.31
2024-04-26T07:58:56.747Z,0.31
2024-04-26T08:00:36.650Z,0.31
2024-04-26T08:02:16.342Z,0.31
2024-04-26T08:03:56.071Z,0.31
2024-04-26T08:05:35.716Z,0.3
2024-04-26T08:07:15.550Z,0.3
2024-04-26T08:08:55.580Z,0.31
2024-04-26T08:10:34.976Z,0.31
2024-04-26T08:12:14.807Z,0.3
2024-04-26T08:13:54.637Z,0.31
2024-04-26T08:15:34.481Z,0.31
2024-04-26T08:17:14.057Z,0.3
2024-04-26T08:18:53.874Z,0.32
2024-04-26T08:20:33.588Z,0.3
2024-04-26T08:22:13.491Z,0.31
2024-04-26T08:23:53.220Z,0.3
2024-04-26T08:25:33.243Z,0
2024-04-26T08:27:12.797Z,0
2024-04-26T08:28:52.568Z,0
2024-04-26T08:30:32.446Z,0
2024-04-26T08:32:12.067Z,0
2024-04-26T08:33:52.016Z,0
2024-04-26T08:35:31.754Z,0
2024-04-26T08:37:11.539Z,0
2024-04-26T08:38:51.263Z,0.02
2024-04-26T08:40:31.218Z,0.04
2024-04-26T08:42:10.590Z,0.04
2024-04-26T08:43:50.576Z,0.05
2024-04-26T08:45:30.215Z,0.05
2024-04-26T08:47:10.131Z,0.05
2024-04-26T08:48:49.695Z,0.05
2024-04-26T08:50:29.466Z,0.06
2024-04-26T08:52:09.225Z,0.06
2024-04-26T08:53:49.079Z,0.06
2024-04-26T08:55:28.970Z,0.06
2024-04-26T08:57:08.522Z,0.06
2024-04-26T08:58:48.369Z,0.07
2024-04-26T09:00:28.092Z,0.07
2024-04-26T09:02:07.964Z,0.07
2024-04-26T09:03:47.653Z,0.06
2024-04-26T09:05:27.438Z,0.05
2024-04-26T09:07:07.268Z,0.07
2024-04-26T09:08:46.924Z,0.07
2024-04-26T09:10:26.721Z,0.06
2024-04-26T09:12:06.469Z,0.07
2024-04-26T09:13:46.278Z,0.07
2024-04-26T09:15:25.992Z,0.06
2024-04-26T09:17:05.785Z,0.06
2024-04-26T09:18:45.572Z,0.06
2024-04-26T09:20:25.319Z,0.06
2024-04-26T09:22:05.095Z,0.06
2024-04-26T09:23:44.891Z,0.07
2024-04-26T09:25:24.651Z,0.06
2024-04-26T09:27:04.408Z,0.07
2024-04-26T09:28:44.268Z,0.07
2024-04-26T09:30:24.186Z,0.08
2024-04-26T09:32:03.697Z,0.07
2024-04-26T09:33:43.486Z,0.06
2024-04-26T09:35:23.250Z,0.06
2024-04-26T09:37:03.355Z,0.07
2024-04-26T09:38:42.786Z,0.07
2024-04-26T09:40:22.557Z,0.07
2024-04-26T09:42:02.383Z,0.07
2024-04-26T09:43:42.193Z,0.06
2024-04-26T09:45:21.872Z,0.07
2024-04-26T09:47:01.656Z,0.07
2024-04-26T09:48:41.488Z,0.07
2024-04-26T09:50:21.330Z,0.07
2024-04-26T09:52:01.083Z,0.06
2024-04-26T09:53:40.763Z,0.06
2024-04-26T09:55:20.527Z,0.06
2024-04-26T09:57:00.258Z,0.05
2024-04-26T09:58:40.101Z,0.07
2024-04-26T10:00:19.851Z,0.07
2024-04-26T10:01:59.574Z,0.07
2024-04-26T10:03:39.357Z,0.07
2024-04-26T10:05:19.253Z,0.06
2024-04-26T10:06:58.894Z,0.06
2024-04-26T10:08:38.649Z,0.07
2024-04-26T10:10:18.407Z,0.06
2024-04-26T10:11:58.199Z,0.06
2024-04-26T10:13:38.115Z,0.06
2024-04-26T10:15:18.112Z,0.06
2024-04-26T10:16:57.712Z,0.07
2024-04-26T10:18:37.509Z,0.07
2024-04-26T10:20:17.442Z,0.06
2024-04-26T10:21:56.977Z,0.06
2024-04-26T10:23:36.607Z,0.07
2024-04-26T10:25:16.486Z,0.07
2024-04-26T10:26:56.402Z,0.06
2024-04-26T10:28:36.191Z,0.07
2024-04-26T10:30:15.733Z,0.05
2024-04-26T10:31:55.434Z,0.07
2024-04-26T10:33:35.211Z,0.06
2024-04-26T10:35:15.135Z,0.07
2024-04-26T10:36:55.270Z,0.07
2024-04-26T10:38:34.572Z,0.05
2024-04-26T10:40:14.374Z,0.06
2024-04-26T10:41:54.147Z,0.06
2024-04-26T10:43:33.980Z,0.07
2024-04-26T10:45:13.928Z,0.06
2024-04-26T10:46:53.419Z,0.06
2024-04-26T10:48:33.139Z,0.06
2024-04-26T10:50:13.015Z,0.06
2024-04-26T10:51:52.776Z,0.07
2024-04-26T10:53:32.480Z,0.06
2024-04-26T10:55:12.220Z,0.06
2024-04-26T10:56:52.000Z,0.06
2024-04-26T10:58:31.919Z,0.06
2024-04-26T11:00:11.557Z,0.06
2024-04-26T11:01:51.307Z,0.06
2024-04-26T11:03:31.134Z,0.06
2024-04-26T11:05:10.853Z,0.07
2024-04-26T11:06:50.627Z,0.06
2024-04-26T11:08:30.383Z,0.06
2024-04-26T11:10:10.156Z,0.06
2024-04-26T11:11:50.233Z,0.07
2024-04-26T11:13:29.710Z,0.06
2024-04-26T11:15:09.483Z,0.07
2024-04-26T11:16:49.282Z,0.06
2024-04-26T11:18:29.012Z,0.06
2024-04-26T11:20:08.792Z,0.06
2024-04-26T11:21:48.710Z,0.07
2024-04-26T11:23:28.341Z,0.06
2024-04-26T11:25:08.094Z,0.06
2024-04-26T11:26:47.864Z,0.06
2024-04-26T11:28:27.636Z,0.06
2024-04-26T11:30:07.400Z,0.06
2024-04-26T11:31:47.182Z,0.06
2024-04-26T11:33:26.952Z,0.06
2024-04-26T11:35:06.906Z,0.06
2024-04-26T11:36:46.686Z,0.06
2024-04-26T11:38:26.267Z,0.06
2024-04-26T11:40:06.023Z,0.05
2024-04-26T11:41:45.909Z,0.06
2024-04-26T11:43:25.683Z,0.06
2024-04-26T11:46:45.270Z,0.06
2024-04-26T11:48:24.872Z,0.06
2024-04-26T11:50:04.654Z,0.06
2024-04-26T11:51:44.429Z,0.06
2024-04-26T11:53:24.248Z,0.06
2024-04-26T11:55:04.061Z,0.06
2024-04-26T11:56:43.801Z,0.05
2024-04-26T11:58:23.521Z,0.06
2024-04-26T12:00:03.345Z,0.06
2024-04-26T12:01:43.137Z,0.06
2024-04-26T12:03:22.842Z,0.06
2024-04-26T12:05:02.591Z,0.06
2024-04-26T12:06:42.362Z,0.06
2024-04-26T12:08:22.114Z,0.05
2024-04-26T12:10:01.891Z,0.06
2024-04-26T12:11:41.679Z,0.05
2024-04-26T12:13:21.426Z,0.06
2024-04-26T12:15:01.343Z,0.06
2024-04-26T12:16:40.976Z,0.06
2024-04-26T12:18:20.749Z,0.05
2024-04-26T12:20:00.521Z,0.06
2024-04-26T12:21:40.300Z,0.06
2024-04-26T12:23:20.055Z,0.06
2024-04-26T12:24:59.836Z,0.06
2024-04-26T12:26:39.578Z,0.05
2024-04-26T12:28:19.433Z,0.05
2024-04-26T12:29:59.136Z,0.05
2024-04-26T12:31:38.933Z,0.06
2024-04-26T12:33:18.696Z,0.04
2024-04-26T12:34:58.507Z,0.05
2024-04-26T12:36:38.244Z,0.06
2024-04-26T12:38:18.013Z,0.06
2024-04-26T12:39:57.762Z,0.05
2024-04-26T12:41:37.536Z,0.06
2024-04-26T12:43:17.338Z,0.06
2024-04-26T12:44:57.086Z,0.06
2024-04-26T12:46:36.968Z,0.06
2024-04-26T12:48:16.629Z,0.06
2024-04-26T12:49:56.393Z,0.06
2024-04-26T12:51:36.179Z,0.06
2024-04-26T12:53:15.967Z,0.06
2024-04-26T12:54:55.694Z,0.06
2024-04-26T12:56:35.457Z,0.05
2024-04-26T12:58:15.245Z,0.05
2024-04-26T12:59:55.034Z,0.05
2024-04-26T13:01:34.778Z,0.05
2024-04-26T13:03:14.537Z,0.04
2024-04-26T13:04:54.384Z,0.04
2024-04-26T13:06:34.262Z,0.04
2024-04-26T13:08:13.852Z,0.04
2024-04-26T13:09:53.623Z,0.05
2024-04-26T13:11:33.424Z,0.06
2024-04-26T13:13:13.214Z,0.05
2024-04-26T13:14:53.125Z,0.05
2024-04-26T13:16:32.849Z,0.06
2024-04-26T13:18:12.500Z,0.06
2024-04-26T13:19:52.323Z,0.05
2024-04-26T13:21:32.066Z,0.05
2024-04-26T13:23:11.855Z,0.06
2024-04-26T13:24:51.634Z,0.05
2024-04-26T13:26:31.554Z,0.06
2024-04-26T13:28:11.206Z,0.05
2024-04-26T13:29:51.039Z,0.05
2024-04-26T13:31:30.694Z,0.05
2024-04-26T13:33:10.619Z,0.06
2024-04-26T13:34:50.190Z,0.05
2024-04-26T13:36:30.000Z,0.06
2024-04-26T13:38:09.928Z,0.05
2024-04-26T13:39:49.501Z,0.06
2024-04-26T13:41:29.305Z,0.05
2024-04-26T13:43:09.066Z,0.04
2024-04-26T13:44:48.802Z,0.05
2024-04-26T13:46:28.689Z,0.05
2024-04-26T13:48:08.356Z,0.05
2024-04-26T13:49:48.135Z,0.05
2024-04-26T13:51:28.148Z,0.06
2024-04-26T13:53:07.836Z,0.05
2024-04-26T13:54:47.628Z,0.05
2024-04-26T13:56:27.302Z,0.05
2024-04-26T13:58:07.032Z,0.05
2024-04-26T13:59:46.739Z,0.05
2024-04-26T14:01:26.586Z,0.06
2024-04-26T14:03:06.356Z,0.05
2024-04-26T14:04:46.150Z,0.05
2024-04-26T14:06:26.016Z,0.05
2024-04-26T14:08:05.770Z,0.05
2024-04-26T14:09:45.369Z,0.05
2024-04-26T14:11:25.537Z,0.05
2024-04-26T14:13:05.097Z,0.06
2024-04-26T14:14:45.026Z,0.05
2024-04-26T14:16:24.560Z,0.05
2024-04-26T14:18:04.300Z,0.05
2024-04-26T14:19:44.320Z,0.05
2024-04-26T14:21:23.866Z,0.05
2024-04-26T14:23:03.545Z,0.05
2024-04-26T14:24:43.346Z,0.05
2024-04-26T14:26:23.154Z,0.06
2024-04-26T14:28:02.961Z,0.05
2024-04-26T14:29:42.761Z,0.05
2024-04-26T14:31:22.719Z,0.05
2024-04-26T14:33:02.400Z,0.05
2024-04-26T14:34:42.027Z,0.05
2024-04-26T14:36:22.099Z,0.04
2024-04-26T14:38:01.571Z,0.05
2024-04-26T14:39:41.250Z,0.05
2024-04-26T14:41:21.072Z,0.05
2024-04-26T14:43:00.806Z,0.04
2024-04-26T14:44:40.709Z,0.05
2024-04-26T14:46:20.470Z,0.04
2024-04-26T14:48:00.094Z,0.04
2024-04-26T14:49:40.023Z,0.04
2024-04-26T14:51:19.661Z,0.05
2024-04-26T14:52:59.503Z,0.04
2024-04-26T14:54:39.255Z,0.04
2024-04-26T14:56:19.161Z,0.05
2024-04-26T14:57:58.781Z,0.05
2024-04-26T14:59:38.473Z,0.05
2024-04-26T15:01:18.255Z,0.05
2024-04-26T15:02:58.143Z,0.06
2024-04-26T15:04:37.848Z,0.05
2024-04-26T15:06:17.594Z,0.05
2024-04-26T15:07:57.424Z,0.05
2024-04-26T15:09:37.285Z,0.08
2024-04-26T15:11:16.884Z,0.05
2024-04-26T15:12:56.761Z,0.05
2024-04-26T15:14:36.509Z,0.05
2024-04-26T15:16:16.195Z,0.05
2024-04-26T15:17:55.973Z,0.05
2024-04-26T15:19:35.744Z,0.05
2024-04-26T15:21:15.517Z,0.05
2024-04-26T15:22:55.296Z,0.05
2024-04-26T15:24:35.071Z,0.06
2024-04-26T15:26:15.007Z,0.05
2024-04-26T15:27:54.732Z,0.05
2024-04-26T15:29:34.374Z,0.05
2024-04-26T15:31:14.117Z,0.04
2024-04-26T15:34:33.693Z,0.04
2024-04-26T15:36:13.452Z,0.05
2024-04-26T15:37:53.297Z,0.05
2024-04-26T15:39:32.989Z,0.05
2024-04-26T15:41:12.780Z,0.04
2024-04-26T15:42:52.518Z,0.04
2024-04-26T15:44:32.378Z,0.05
2024-04-26T15:46:12.056Z,0.06
2024-04-26T15:47:51.851Z,0.05
2024-04-26T15:49:31.623Z,0.04
2024-04-26T15:51:11.496Z,0.05
2024-04-26T15:52:51.205Z,0.04
2024-04-26T15:54:30.905Z,0.05
2024-04-26T15:56:10.679Z,0.04
2024-04-26T15:57:50.481Z,0.05
2024-04-26T15:59:30.228Z,0.04
2024-04-26T16:01:09.999Z,0.04
2024-04-26T16:02:49.767Z,0.05
2024-04-26T16:04:29.539Z,0.05
2024-04-26T16:06:09.376Z,0.05
2024-04-26T16:07:49.089Z,0.05
2024-04-26T16:09:28.856Z,0.04
2024-04-26T16:11:08.616Z,0.04
2024-04-26T16:12:48.398Z,0.05
2024-04-26T16:14:28.145Z,0.05
2024-04-26T16:16:07.942Z,0.04
2024-04-26T16:17:47.708Z,0.05
2024-04-26T16:19:27.479Z,0.05
2024-04-26T16:21:07.245Z,0.05
2024-04-26T16:22:47.022Z,0.05
2024-04-26T16:24:26.787Z,0.05
2024-04-26T16:26:06.561Z,0.05
2024-04-26T16:27:46.328Z,0
2024-04-26T16:29:26.096Z,0.05
2024-04-26T16:31:05.864Z,0.05
2024-04-26T16:32:45.628Z,0.05
2024-04-26T16:34:25.409Z,0.05
2024-04-26T16:36:05.175Z,0.05
2024-04-26T16:37:44.938Z,0.05
2024-04-26T16:39:24.737Z,0.04
2024-04-26T16:41:04.485Z,0.04
2024-04-26T16:42:44.290Z,0.04
2024-04-26T16:44:24.043Z,0.05
2024-04-26T16:46:03.801Z,0.04
2024-04-26T16:47:43.555Z,0.05
2024-04-26T16:49:23.545Z,0.04
2024-04-26T16:51:03.121Z,0.04
2024-04-26T16:52:42.883Z,0.04
2024-04-26T16:54:22.632Z,0.05
2024-04-26T16:56:02.407Z,0.05
2024-04-26T16:57:42.223Z,0.04
2024-04-26T16:59:22.007Z,0.05
2024-04-26T17:01:01.736Z,0.04
2024-04-26T17:02:41.509Z,0.05
2024-04-26T17:04:21.283Z,0.05
2024-04-26T17:06:01.057Z,0.04
2024-04-26T17:07:40.847Z,0.05
2024-04-26T17:09:20.575Z,0.05
2024-04-26T17:11:00.347Z,0.04
2024-04-26T17:12:40.128Z,0.05
2024-04-26T17:14:20.481Z,0.06
2024-04-26T17:15:59.651Z,0.06
2024-04-26T17:17:39.443Z,0.06
2024-04-26T17:19:19.221Z,0.04
2024-04-26T17:20:58.970Z,0.05
2024-04-26T17:22:38.761Z,0.06
2024-04-26T17:24:18.521Z,0.05
2024-04-26T17:25:58.304Z,0.05
2024-04-26T17:27:38.110Z,0.05
2024-04-26T17:29:17.833Z,0.05
2024-04-26T17:30:57.621Z,0.05
2024-04-26T17:32:37.376Z,0.05
2024-04-26T17:34:17.162Z,0.05
2024-04-26T17:35:56.933Z,0.04
2024-04-26T17:37:36.676Z,0.04
2024-04-26T17:39:16.454Z,0.05
2024-04-26T17:40:56.222Z,0.05
2024-04-26T17:42:36.000Z,0.05
2024-04-26T17:44:15.767Z,0.05
2024-04-26T17:45:55.680Z,0.11
2024-04-26T17:47:35.307Z,0.05
2024-04-26T17:49:15.137Z,0.06
2024-04-26T17:50:54.850Z,0.06
2024-04-26T17:52:34.613Z,0.06
2024-04-26T17:54:14.387Z,0.06
2024-04-26T17:55:54.170Z,0.05
2024-04-26T17:57:33.922Z,0.07
2024-04-26T17:59:13.704Z,0.08
2024-04-26T18:00:53.536Z,0.06
2024-04-26T18:02:33.233Z,0.06
2024-04-26T18:04:13.019Z,0.04
2024-04-26T18:05:52.897Z,0.02
2024-04-26T18:07:32.554Z,0.01
2024-04-26T18:10:52.090Z,0
2024-04-26T18:12:31.870Z,0
2024-04-26T18:14:11.631Z,0
2024-04-26T18:15:51.388Z,0
2024-04-26T18:17:31.180Z,0
2024-04-26T18:19:10.927Z,0
2024-04-26T18:20:50.724Z,0
2024-04-26T18:22:30.469Z,0
2024-04-26T18:24:10.243Z,0
2024-04-26T18:25:50.031Z,0
2024-04-26T18:27:29.973Z,0
2024-04-26T18:29:09.539Z,0
2024-04-26T18:30:49.365Z,0
2024-04-26T18:32:29.081Z,0
2024-04-26T18:34:08.856Z,0
2024-04-26T18:35:48.639Z,0
2024-04-26T18:37:28.386Z,0
2024-04-26T18:39:08.165Z,0
2024-04-26T18:40:47.988Z,0
2024-04-26T18:42:27.741Z,0
2024-04-26T18:44:07.435Z,0
2024-04-26T18:45:47.217Z,0
2024-04-26T18:47:26.982Z,0
2024-04-26T18:49:06.758Z,0
2024-04-26T18:50:46.567Z,0
2024-04-26T18:52:26.284Z,0
2024-04-26T18:54:06.069Z,0
2024-04-26T18:55:45.830Z,0
2024-04-26T18:57:25.672Z,0
2024-04-26T18:59:05.342Z,0
2024-04-26T19:00:45.140Z,0
2024-04-26T19:02:24.958Z,0
2024-04-26T19:04:04.789Z,0
2024-04-26T19:05:44.439Z,0
2024-04-26T19:07:24.194Z,0
2024-04-26T19:09:03.969Z,0
2024-04-26T19:10:43.727Z,0
2024-04-26T19:12:23.483Z,0
2024-04-26T19:14:03.268Z,0
2024-04-26T19:15:43.032Z,0
2024-04-26T19:17:22.789Z,0
2024-04-26T19:19:02.704Z,0
2024-04-26T19:20:42.332Z,0
2024-04-26T19:22:22.208Z,0
2024-04-26T19:24:01.897Z,0
2024-04-26T19:25:41.647Z,0
2024-04-26T19:27:21.401Z,0
2024-04-26T19:29:01.172Z,0
2024-04-26T19:30:40.951Z,0
2024-04-26T19:32:20.701Z,0
2024-04-26T19:34:00.490Z,0
2024-04-26T19:35:40.245Z,0
2024-04-26T19:37:19.997Z,0
2024-04-26T19:39:00.004Z,0
2024-04-26T19:40:39.554Z,0
2024-04-26T19:42:19.337Z,0
2024-04-26T19:43:59.076Z,0
2024-04-26T19:45:39.117Z,0
2024-04-26T19:47:18.668Z,0
2024-04-26T19:48:58.438Z,0
2024-04-26T19:50:38.147Z,0
2024-04-26T19:52:17.909Z,0
2024-04-26T19:53:57.792Z,0
2024-04-26T19:55:37.443Z,0
2024-04-26T19:57:17.247Z,0
2024-04-26T19:58:56.985Z,0
2024-04-26T20:00:36.802Z,0
2024-04-26T20:02:16.586Z,0
2024-04-26T20:03:56.289Z,0
2024-04-26T20:05:36.050Z,0
2024-04-26T20:07:15.842Z,0
2024-04-26T20:08:55.596Z,0
2024-04-26T20:10:35.348Z,0
2024-04-26T20:12:15.137Z,0
2024-04-26T20:13:54.904Z,0
2024-04-26T20:15:34.656Z,0
2024-04-26T20:17:14.425Z,0
2024-04-26T20:18:54.222Z,0
2024-04-26T20:20:33.970Z,0
2024-04-26T20:22:13.737Z,0
2024-04-26T20:23:53.502Z,0
2024-04-26T20:25:33.263Z,0
2024-04-26T20:27:13.014Z,0
2024-04-26T20:28:52.809Z,0
2024-04-26T20:30:32.578Z,0
2024-04-26T20:32:12.330Z,0
2024-04-26T20:33:52.103Z,0
2024-04-26T20:35:31.885Z,0
2024-04-26T20:37:11.661Z,0
2024-04-26T20:38:51.471Z,0
2024-04-26T20:40:31.180Z,0
2024-04-26T20:42:11.409Z,0
2024-04-26T20:43:50.735Z,0
2024-04-26T20:45:30.509Z,0
2024-04-26T20:47:10.246Z,0
2024-04-26T20:48:50.012Z,0
2024-04-26T20:50:29.839Z,0
2024-04-26T20:52:09.565Z,0
2024-04-26T20:53:49.317Z,0
2024-04-26T20:55:29.090Z,0
2024-04-26T20:57:08.848Z,0
2024-04-26T20:58:48.627Z,0
2024-04-26T21:00:28.406Z,0
2024-04-26T21:02:08.203Z,0
2024-04-26T21:03:47.914Z,0
2024-04-26T21:05:27.699Z,0
2024-04-26T21:07:07.450Z,0
2024-04-26T21:08:47.210Z,0
2024-04-26T21:10:26.991Z,0
2024-04-26T21:12:06.850Z,0
2024-04-26T21:13:46.535Z,0
2024-04-26T21:15:26.297Z,0
2024-04-26T21:17:06.065Z,0
2024-04-26T21:18:45.813Z,0
2024-04-26T21:20:25.601Z,0
2024-04-26T21:22:05.368Z,0
2024-04-26T21:23:45.171Z,0
2024-04-26T21:25:24.895Z,0
2024-04-26T21:27:04.669Z,0
2024-04-26T21:28:44.417Z,0
2024-04-26T21:30:24.189Z,0
2024-04-26T21:32:04.253Z,0
2024-04-26T21:33:43.755Z,0
2024-04-26T21:35:23.523Z,0
2024-04-26T21:37:03.357Z,0
2024-04-26T21:38:43.042Z,0
2024-04-26T21:40:22.813Z,0
2024-04-26T21:42:02.591Z,0
2024-04-26T21:43:42.357Z,0
2024-04-26T21:45:22.310Z,0
2024-04-26T21:47:01.866Z,0
2024-04-26T21:48:41.633Z,0
2024-04-26T21:50:21.401Z,0
2024-04-26T21:52:01.188Z,0
2024-04-26T21:53:40.945Z,0
2024-04-26T21:55:20.694Z,0
2024-04-26T21:57:00.544Z,0
2024-04-26T21:58:40.239Z,0
2024-04-26T22:00:20.014Z,0
2024-04-26T22:01:59.858Z,0
2024-04-26T22:03:39.539Z,0
2024-04-26T22:05:19.302Z,0
2024-04-26T22:06:59.125Z,0
2024-04-26T22:08:38.855Z,0
2024-04-26T22:10:18.602Z,0
2024-04-26T22:11:58.393Z,0
2024-04-26T22:13:38.138Z,0
2024-04-26T22:15:17.917Z,0
2024-04-26T22:16:57.692Z,0
2024-04-26T22:18:37.459Z,0
2024-04-26T22:20:17.270Z,0
2024-04-26T22:21:57.003Z,0
2024-04-26T22:23:36.814Z,0
2024-04-26T22:25:16.530Z,0
2024-04-26T22:26:56.393Z,0
2024-04-26T22:28:36.054Z,0
2024-04-26T22:30:15.857Z,0
2024-04-26T22:31:55.617Z,0
2024-04-26T22:33:35.346Z,0
2024-04-26T22:35:15.132Z,0
2024-04-26T22:36:54.895Z,0
2024-04-26T22:38:34.672Z,0
2024-04-26T22:40:14.603Z,0
2024-04-26T22:41:54.211Z,0
2024-04-26T22:43:33.941Z,0
2024-04-26T22:45:13.811Z,0
2024-04-26T22:46:53.540Z,0
2024-04-26T22:48:33.271Z,0
2024-04-26T22:50:13.172Z,0
2024-04-26T22:51:52.822Z,0
2024-04-26T22:53:32.606Z,0
2024-04-26T22:55:12.340Z,0
2024-04-26T22:56:52.102Z,0
2024-04-26T22:58:31.869Z,0
2024-04-26T23:00:11.628Z,0
2024-04-26T23:01:51.401Z,0
2024-04-26T23:03:31.167Z,0
2024-04-26T23:05:10.947Z,0
2024-04-26T23:06:50.706Z,0
2024-04-26T23:08:30.465Z,0
2024-04-26T23:10:10.246Z,0